Time,TemperatureF,DewpointF,PressureIn,WindDirection,WindDirectionDegrees,WindSpeedMPH,WindSpeedGustMPH,Humidity,HourlyPrecipIn,Conditions,Clouds,dailyrainin,SoftwareType,DateUTC
2013-07-24 00:00:00,68.5,66.4,29.82,ENE,60,18.0,18.0,93,0.39,,,0.72,Wunderground v.1.15,2013-07-24 05:00:00,
2013-07-24 00:02:00,68.6,66.5,29.81,NNE,17,17.0,18.0,93,0.36,,,0.01,Wunderground v.1.15,2013-07-24 05:02:00,
2013-07-24 00:08:00,68.9,67.1,29.81,North,10,10.0,18.0,94,0.09,,,0.02,Wunderground v.1.15,2013-07-24 05:08:00,
2013-07-24 00:14:00,69.0,67.2,29.80,NE,37,11.0,15.0,94,0.09,,,0.02,Wunderground v.1.15,2013-07-24 05:14:00,
2013-07-24 00:20:00,69.1,67.3,29.78,NE,34,10.0,10.0,94,0.06,,,0.03,Wunderground v.1.15,2013-07-24 05:20:00,
2013-07-24 00:26:00,69.0,67.5,29.79,NE,42,7.0,12.0,95,0.06,,,0.03,Wunderground v.1.15,2013-07-24 05:26:00,
2013-07-24 00:32:00,69.0,67.5,29.78,NE,54,3.0,4.0,95,0.06,,,0.04,Wunderground v.1.15,2013-07-24 05:32:00,
2013-07-24 00:38:00,68.6,67.1,29.78,NE,41,3.0,8.0,95,0.05,,,0.04,Wunderground v.1.15,2013-07-24 05:38:00,
2013-07-24 00:44:00,68.5,67.0,29.76,NE,48,2.0,3.0,95,0.00,,,0.04,Wunderground v.1.15,2013-07-24 05:44:00,
2013-07-24 00:50:00,68.6,67.1,29.76,North,355,0.0,3.0,95,0.00,,,0.04,Wunderground v.1.15,2013-07-24 05:50:00,
2013-07-24 00:56:00,68.4,66.9,29.75,NW,311,2.0,4.0,95,0.00,,,0.05,Wunderground v.1.15,2013-07-24 05:56:00,
2013-07-24 01:02:00,68.5,67.0,29.73,NW,311,1.0,1.0,95,0.08,,,0.06,Wunderground v.1.15,2013-07-24 06:02:00,
2013-07-24 01:10:00,68.8,67.3,29.74,ENE,63,0.0,0.0,95,0.07,,,0.06,Wunderground v.1.15,2013-07-24 06:10:00,
2013-07-24 01:16:00,68.9,67.4,29.76,ENE,63,0.0,0.0,95,0.06,,,0.07,Wunderground v.1.15,2013-07-24 06:16:00,
2013-07-24 01:22:00,69.2,67.7,29.78,ENE,63,0.0,0.0,95,0.05,,,0.07,Wunderground v.1.15,2013-07-24 06:22:00,
2013-07-24 01:30:00,69.4,67.9,29.83,NW,315,3.0,6.0,95,0.00,,,0.08,Wunderground v.1.15,2013-07-24 06:30:00,
2013-07-24 01:36:00,69.2,67.4,29.89,NW,318,7.0,15.0,94,0.17,,,0.10,Wunderground v.1.15,2013-07-24 06:36:00,
2013-07-24 01:42:00,69.2,67.1,29.87,NW,304,8.0,8.0,93,0.35,,,0.13,Wunderground v.1.15,2013-07-24 06:42:00,
2013-07-24 01:50:00,69.3,67.2,29.83,WNW,303,1.0,2.0,93,0.16,,,0.15,Wunderground v.1.15,2013-07-24 06:50:00,
2013-07-24 01:56:00,69.4,67.3,29.80,East,92,1.0,2.0,93,0.07,,,0.15,Wunderground v.1.15,2013-07-24 06:56:00,
2013-07-24 02:02:00,69.5,67.4,29.84,ESE,119,1.0,3.0,93,0.04,,,0.16,Wunderground v.1.15,2013-07-24 07:02:00,
2013-07-24 02:10:00,69.6,67.5,29.84,ESE,119,0.0,0.0,93,0.04,,,0.16,Wunderground v.1.15,2013-07-24 07:10:00,
2013-07-24 02:16:00,69.4,67.3,29.84,ESE,119,0.0,0.0,93,0.04,,,0.16,Wunderground v.1.15,2013-07-24 07:16:00,
2013-07-24 02:22:00,69.5,67.7,29.84,ESE,119,0.0,0.0,94,0.00,,,0.16,Wunderground v.1.15,2013-07-24 07:22:00,
2013-07-24 02:30:00,69.6,67.8,29.83,SSE,151,1.0,2.0,94,0.00,,,0.16,Wunderground v.1.15,2013-07-24 07:30:00,
2013-07-24 02:36:00,69.5,67.4,29.82,SSE,148,2.0,3.0,93,0.00,,,0.16,Wunderground v.1.15,2013-07-24 07:36:00,
2013-07-24 02:42:00,69.5,67.4,29.85,South,178,2.0,2.0,93,0.00,,,0.16,Wunderground v.1.15,2013-07-24 07:42:00,
2013-07-24 02:50:00,69.8,67.7,29.82,SSE,165,1.0,6.0,93,0.00,,,0.16,Wunderground v.1.15,2013-07-24 07:50:00,
2013-07-24 02:56:00,70.0,67.6,29.79,SE,146,3.0,6.0,92,0.00,,,0.16,Wunderground v.1.15,2013-07-24 07:56:00,
2013-07-24 03:02:00,70.1,67.7,29.79,SSE,153,3.0,4.0,92,0.00,,,0.16,Wunderground v.1.15,2013-07-24 08:02:00,
2013-07-24 03:08:00,70.1,67.7,29.78,SSE,168,3.0,4.0,92,0.00,,,0.16,Wunderground v.1.15,2013-07-24 08:08:00,
2013-07-24 03:14:00,70.2,67.8,29.77,South,176,3.0,5.0,92,0.00,,,0.16,Wunderground v.1.15,2013-07-24 08:14:00,
2013-07-24 03:20:00,70.4,68.0,29.78,ESE,121,4.0,4.0,92,0.00,,,0.16,Wunderground v.1.15,2013-07-24 08:20:00,
2013-07-24 03:26:00,70.4,68.0,29.78,South,171,4.0,4.0,92,0.00,,,0.16,Wunderground v.1.15,2013-07-24 08:26:00,
2013-07-24 03:32:00,70.6,68.2,29.81,SSE,166,2.0,3.0,92,0.00,,,0.16,Wunderground v.1.15,2013-07-24 08:32:00,
2013-07-24 03:38:00,70.6,68.2,29.84,SE,140,1.0,3.0,92,0.00,,,0.16,Wunderground v.1.15,2013-07-24 08:38:00,
2013-07-24 03:44:00,70.5,68.1,29.85,SSW,197,0.0,1.0,92,0.00,,,0.16,Wunderground v.1.15,2013-07-24 08:44:00,
2013-07-24 03:50:00,70.3,67.9,29.83,SSW,194,0.0,0.0,92,0.00,,,0.16,Wunderground v.1.15,2013-07-24 08:50:00,
2013-07-24 03:56:00,70.2,67.8,29.82,South,182,1.0,1.0,92,0.00,,,0.16,Wunderground v.1.15,2013-07-24 08:56:00,
2013-07-24 04:02:00,70.0,67.6,29.80,SSE,156,3.0,3.0,92,0.00,,,0.16,Wunderground v.1.15,2013-07-24 09:02:00,
2013-07-24 04:08:00,70.1,68.0,29.85,SSE,155,2.0,3.0,93,0.00,,,0.16,Wunderground v.1.15,2013-07-24 09:08:00,
2013-07-24 04:14:00,70.2,68.1,29.86,SSE,152,1.0,2.0,93,0.00,,,0.16,Wunderground v.1.15,2013-07-24 09:14:00,
2013-07-24 04:20:00,70.3,68.2,29.82,SE,126,1.0,1.0,93,0.00,,,0.16,Wunderground v.1.15,2013-07-24 09:20:00,
2013-07-24 04:26:00,70.3,68.2,29.80,SSE,166,2.0,6.0,93,0.00,,,0.16,Wunderground v.1.15,2013-07-24 09:26:00,
2013-07-24 04:32:00,70.4,68.3,29.80,South,182,2.0,2.0,93,0.00,,,0.16,Wunderground v.1.15,2013-07-24 09:32:00,
2013-07-24 04:38:00,70.5,68.4,29.81,SSE,165,2.0,2.0,93,0.00,,,0.16,Wunderground v.1.15,2013-07-24 09:38:00,
2013-07-24 04:44:00,70.5,68.4,29.82,SSE,158,2.0,3.0,93,0.00,,,0.16,Wunderground v.1.15,2013-07-24 09:44:00,
2013-07-24 04:50:00,70.4,68.3,29.82,SSE,165,1.0,1.0,93,0.00,,,0.16,Wunderground v.1.15,2013-07-24 09:50:00,
2013-07-24 04:56:00,70.4,68.3,29.81,SSE,165,1.0,1.0,93,0.00,,,0.16,Wunderground v.1.15,2013-07-24 09:56:00,
2013-07-24 05:02:00,70.4,68.3,29.83,SSE,162,0.0,0.0,93,0.00,,,0.16,Wunderground v.1.15,2013-07-24 10:02:00,
2013-07-24 05:08:00,70.5,68.4,29.82,SSE,165,1.0,1.0,93,0.00,,,0.16,Wunderground v.1.15,2013-07-24 10:08:00,
2013-07-24 05:14:00,70.6,68.5,29.83,SSE,168,0.0,1.0,93,0.00,,,0.16,Wunderground v.1.15,2013-07-24 10:14:00,
2013-07-24 05:20:00,70.6,68.5,29.85,SSE,168,0.0,0.0,93,0.00,,,0.16,Wunderground v.1.15,2013-07-24 10:20:00,
2013-07-24 05:26:00,70.6,68.5,29.84,SSE,167,0.0,1.0,93,0.00,,,0.16,Wunderground v.1.15,2013-07-24 10:26:00,
2013-07-24 05:32:00,70.5,68.4,29.87,West,274,1.0,5.0,93,0.00,,,0.16,Wunderground v.1.15,2013-07-24 10:32:00,
2013-07-24 05:38:00,70.5,68.4,29.86,SSW,210,0.0,5.0,93,0.00,,,0.16,Wunderground v.1.15,2013-07-24 10:38:00,
2013-07-24 05:44:00,70.4,68.3,29.84,SSE,155,0.0,1.0,93,0.00,,,0.16,Wunderground v.1.15,2013-07-24 10:44:00,
2013-07-24 05:50:00,70.4,68.0,29.83,SSE,155,0.0,0.0,92,0.00,,,0.16,Wunderground v.1.15,2013-07-24 10:50:00,
2013-07-24 05:56:00,70.3,67.9,29.82,SSE,148,0.0,3.0,92,0.00,,,0.16,Wunderground v.1.15,2013-07-24 10:56:00,
2013-07-24 06:02:00,70.2,67.8,29.84,SSE,149,1.0,1.0,92,0.00,,,0.16,Wunderground v.1.15,2013-07-24 11:02:00,
2013-07-24 06:08:00,70.1,67.7,29.85,SSE,152,0.0,1.0,92,0.00,,,0.16,Wunderground v.1.15,2013-07-24 11:08:00,
2013-07-24 06:14:00,70.2,67.8,29.85,South,171,0.0,1.0,92,0.00,,,0.16,Wunderground v.1.15,2013-07-24 11:14:00,
2013-07-24 06:20:00,70.2,67.8,29.84,South,170,0.0,1.0,92,0.00,,,0.16,Wunderground v.1.15,2013-07-24 11:20:00,
2013-07-24 06:26:00,70.2,67.4,29.84,South,170,0.0,1.0,91,0.00,,,0.16,Wunderground v.1.15,2013-07-24 11:26:00,
2013-07-24 06:32:00,70.2,67.4,29.83,South,169,0.0,0.0,91,0.00,,,0.16,Wunderground v.1.15,2013-07-24 11:32:00,
2013-07-24 06:38:00,70.1,67.3,29.84,South,169,0.0,0.0,91,0.00,,,0.16,Wunderground v.1.15,2013-07-24 11:38:00,
2013-07-24 06:44:00,70.1,67.3,29.83,South,169,0.0,0.0,91,0.00,,,0.16,Wunderground v.1.15,2013-07-24 11:44:00,
2013-07-24 06:50:00,70.1,67.3,29.83,West,265,0.0,0.0,91,0.00,,,0.16,Wunderground v.1.15,2013-07-24 11:50:00,
2013-07-24 06:56:00,70.2,67.4,29.83,West,265,0.0,0.0,91,0.00,,,0.16,Wunderground v.1.15,2013-07-24 11:56:00,
2013-07-24 07:02:00,70.2,67.4,29.83,West,265,0.0,0.0,91,0.00,,,0.16,Wunderground v.1.15,2013-07-24 12:02:00,
2013-07-24 07:08:00,70.2,67.4,29.83,WSW,242,0.0,1.0,91,0.00,,,0.16,Wunderground v.1.15,2013-07-24 12:08:00,
2013-07-24 07:14:00,70.2,67.4,29.83,West,261,0.0,0.0,91,0.00,,,0.16,Wunderground v.1.15,2013-07-24 12:14:00,
2013-07-24 07:20:00,70.3,67.5,29.83,West,264,1.0,1.0,91,0.00,,,0.16,Wunderground v.1.15,2013-07-24 12:20:00,
2013-07-24 07:26:00,70.3,67.5,29.83,West,265,1.0,1.0,91,0.00,,,0.16,Wunderground v.1.15,2013-07-24 12:26:00,
2013-07-24 07:32:00,70.3,67.5,29.83,West,269,0.0,3.0,91,0.00,,,0.16,Wunderground v.1.15,2013-07-24 12:32:00,
2013-07-24 07:38:00,70.3,67.5,29.83,West,269,0.0,3.0,91,0.00,,,0.16,Wunderground v.1.15,2013-07-24 12:38:00,
2013-07-24 07:44:00,70.3,67.5,29.83,West,269,0.0,3.0,91,0.00,,,0.16,Wunderground v.1.15,2013-07-24 12:44:00,
2013-07-24 07:50:00,70.3,67.5,29.83,West,268,0.0,1.0,91,0.00,,,0.16,Wunderground v.1.15,2013-07-24 12:50:00,
2013-07-24 07:56:00,70.3,67.2,29.83,West,272,1.0,1.0,90,0.00,,,0.16,Wunderground v.1.15,2013-07-24 12:56:00,
2013-07-24 08:02:00,70.4,67.3,29.83,West,270,0.0,1.0,90,0.00,,,0.16,Wunderground v.1.15,2013-07-24 13:02:00,
2013-07-24 08:08:00,70.4,67.3,29.84,West,270,0.0,2.0,90,0.00,,,0.16,Wunderground v.1.15,2013-07-24 13:08:00,
2013-07-24 08:14:00,70.5,67.4,29.84,West,271,0.0,3.0,90,0.00,,,0.16,Wunderground v.1.15,2013-07-24 13:14:00,
2013-07-24 08:20:00,70.7,67.3,29.84,West,279,0.0,0.0,89,0.00,,,0.16,Wunderground v.1.15,2013-07-24 13:20:00,
2013-07-24 08:26:00,70.9,67.5,29.85,West,279,0.0,2.0,89,0.00,,,0.16,Wunderground v.1.15,2013-07-24 13:26:00,
2013-07-24 08:32:00,71.1,67.7,29.85,West,279,0.0,1.0,89,0.00,,,0.16,Wunderground v.1.15,2013-07-24 13:32:00,
2013-07-24 08:38:00,71.3,67.9,29.85,West,279,0.0,1.0,89,0.00,,,0.16,Wunderground v.1.15,2013-07-24 13:38:00,
2013-07-24 08:44:00,71.6,67.9,29.84,West,279,0.0,3.0,88,0.00,,,0.16,Wunderground v.1.15,2013-07-24 13:44:00,
2013-07-24 08:50:00,71.9,68.2,29.85,West,279,1.0,1.0,88,0.00,,,0.16,Wunderground v.1.15,2013-07-24 13:50:00,
2013-07-24 08:56:00,72.3,68.2,29.85,WNW,286,0.0,4.0,87,0.00,,,0.16,Wunderground v.1.15,2013-07-24 13:56:00,
2013-07-24 09:02:00,72.5,68.1,29.85,WNW,284,1.0,2.0,86,0.00,,,0.16,Wunderground v.1.15,2013-07-24 14:02:00,
2013-07-24 09:08:00,72.8,68.0,29.86,NNW,341,2.0,4.0,85,0.00,,,0.16,Wunderground v.1.15,2013-07-24 14:08:00,
2013-07-24 09:14:00,73.0,68.2,29.86,NNW,336,2.0,3.0,85,0.00,,,0.16,Wunderground v.1.15,2013-07-24 14:14:00,
2013-07-24 09:20:00,73.3,68.5,29.86,North,355,1.0,2.0,85,0.00,,,0.16,Wunderground v.1.15,2013-07-24 14:20:00,
2013-07-24 09:26:00,73.5,68.4,29.87,NNE,18,2.0,3.0,84,0.00,,,0.16,Wunderground v.1.15,2013-07-24 14:26:00,
2013-07-24 09:32:00,74.0,68.5,29.87,North,11,2.0,4.0,83,0.00,,,0.16,Wunderground v.1.15,2013-07-24 14:32:00,
2013-07-24 09:38:00,74.3,68.1,29.87,North,9,2.0,5.0,81,0.00,,,0.16,Wunderground v.1.15,2013-07-24 14:38:00,
2013-07-24 09:44:00,74.7,68.5,29.87,NNW,340,2.0,5.0,81,0.00,,,0.16,Wunderground v.1.15,2013-07-24 14:44:00,
2013-07-24 09:50:00,75.0,68.8,29.86,NNE,13,3.0,3.0,81,0.00,,,0.16,Wunderground v.1.15,2013-07-24 14:50:00,
2013-07-24 09:56:00,75.6,69.4,29.87,NNE,17,2.0,4.0,81,0.00,,,0.16,Wunderground v.1.15,2013-07-24 14:56:00,
2013-07-24 10:02:00,76.1,69.1,29.87,North,360,2.0,3.0,79,0.00,,,0.16,Wunderground v.1.15,2013-07-24 15:02:00,
2013-07-24 10:08:00,76.7,69.3,29.88,NW,321,2.0,4.0,78,0.00,,,0.16,Wunderground v.1.15,2013-07-24 15:08:00,
2013-07-24 10:14:00,77.2,69.4,29.87,NNW,332,1.0,2.0,77,0.00,,,0.16,Wunderground v.1.15,2013-07-24 15:14:00,
2013-07-24 10:20:00,77.6,69.4,29.88,North,350,2.0,3.0,76,0.00,,,0.16,Wunderground v.1.15,2013-07-24 15:20:00,
2013-07-24 10:26:00,77.3,68.8,29.88,NNW,339,3.0,5.0,75,0.00,,,0.16,Wunderground v.1.15,2013-07-24 15:26:00,
2013-07-24 10:32:00,77.7,69.5,29.88,NW,319,3.0,6.0,76,0.00,,,0.16,Wunderground v.1.15,2013-07-24 15:32:00,
2013-07-24 10:38:00,77.6,69.4,29.88,NNW,347,3.0,7.0,76,0.00,,,0.16,Wunderground v.1.15,2013-07-24 15:38:00,
2013-07-24 10:44:00,77.9,69.7,29.89,North,355,3.0,5.0,76,0.00,,,0.16,Wunderground v.1.15,2013-07-24 15:44:00,
2013-07-24 10:50:00,78.7,69.7,29.89,NNE,14,2.0,2.0,74,0.00,,,0.16,Wunderground v.1.15,2013-07-24 15:50:00,
2013-07-24 10:56:00,78.7,68.9,29.88,North,355,3.0,6.0,72,0.00,,,0.16,Wunderground v.1.15,2013-07-24 15:56:00,
2013-07-24 11:02:00,78.6,69.2,29.88,NNE,15,3.0,4.0,73,0.00,,,0.16,Wunderground v.1.15,2013-07-24 16:02:00,
2013-07-24 11:08:00,79.0,69.6,29.89,NNE,29,3.0,4.0,73,0.00,,,0.16,Wunderground v.1.15,2013-07-24 16:08:00,
2013-07-24 11:14:00,79.5,69.3,29.89,NNE,28,3.0,4.0,71,0.00,,,0.16,Wunderground v.1.15,2013-07-24 16:14:00,
2013-07-24 11:20:00,79.3,69.5,29.89,North,360,4.0,4.0,72,0.00,,,0.16,Wunderground v.1.15,2013-07-24 16:20:00,
2013-07-24 11:26:00,80.4,70.1,29.89,North,10,2.0,4.0,71,0.00,,,0.16,Wunderground v.1.15,2013-07-24 16:26:00,
2013-07-24 11:32:00,80.9,69.8,29.89,NNE,17,2.0,2.0,69,0.00,,,0.16,Wunderground v.1.15,2013-07-24 16:32:00,
2013-07-24 11:38:00,80.3,69.2,29.89,North,360,3.0,4.0,69,0.00,,,0.16,Wunderground v.1.15,2013-07-24 16:38:00,
2013-07-24 11:44:00,80.5,69.8,29.89,NNE,22,2.0,6.0,70,0.00,,,0.16,Wunderground v.1.15,2013-07-24 16:44:00,
2013-07-24 11:50:00,80.1,69.4,29.89,North,350,3.0,3.0,70,0.00,,,0.16,Wunderground v.1.15,2013-07-24 16:50:00,
2013-07-24 11:56:00,80.4,69.7,29.89,NNW,329,2.0,3.0,70,0.00,,,0.16,Wunderground v.1.15,2013-07-24 16:56:00,
2013-07-24 12:02:00,80.7,69.6,29.89,NNE,29,2.0,3.0,69,0.00,,,0.16,Wunderground v.1.15,2013-07-24 17:02:00,
2013-07-24 12:08:00,81.4,70.2,29.89,North,355,3.0,3.0,69,0.00,,,0.16,Wunderground v.1.15,2013-07-24 17:08:00,
2013-07-24 12:14:00,80.8,69.7,29.89,NNE,14,4.0,7.0,69,0.00,,,0.16,Wunderground v.1.15,2013-07-24 17:14:00,
2013-07-24 12:20:00,80.9,70.2,29.89,North,355,3.0,3.0,70,0.00,,,0.16,Wunderground v.1.15,2013-07-24 17:20:00,
2013-07-24 12:26:00,82.5,70.9,29.89,NE,34,1.0,3.0,68,0.00,,,0.16,Wunderground v.1.15,2013-07-24 17:26:00,
2013-07-24 12:32:00,83.0,70.5,29.89,NNE,13,2.0,5.0,66,0.00,,,0.16,Wunderground v.1.15,2013-07-24 17:32:00,
2013-07-24 12:38:00,83.2,70.2,29.89,North,9,3.0,5.0,65,0.00,,,0.16,Wunderground v.1.15,2013-07-24 17:38:00,
2013-07-24 12:44:00,83.4,70.8,29.90,NNE,18,3.0,3.0,66,0.00,,,0.16,Wunderground v.1.15,2013-07-24 17:44:00,
2013-07-24 12:50:00,83.7,70.2,29.90,North,355,3.0,3.0,64,0.00,,,0.16,Wunderground v.1.15,2013-07-24 17:50:00,
2013-07-24 12:56:00,83.5,70.0,29.90,NNE,19,3.0,3.0,64,0.00,,,0.16,Wunderground v.1.15,2013-07-24 17:56:00,
2013-07-24 13:02:00,83.4,70.4,29.90,NNW,341,2.0,3.0,65,0.00,,,0.16,Wunderground v.1.15,2013-07-24 18:02:00,
2013-07-24 13:08:00,83.8,70.3,29.89,North,360,3.0,4.0,64,0.00,,,0.16,Wunderground v.1.15,2013-07-24 18:08:00,
2013-07-24 13:14:00,84.4,70.9,29.89,NW,317,3.0,4.0,64,0.00,,,0.16,Wunderground v.1.15,2013-07-24 18:14:00,
2013-07-24 13:20:00,84.2,70.2,29.89,NW,319,3.0,3.0,63,0.00,,,0.16,Wunderground v.1.15,2013-07-24 18:20:00,
2013-07-24 13:26:00,85.1,71.1,29.89,NNE,17,2.0,5.0,63,0.00,,,0.16,Wunderground v.1.15,2013-07-24 18:26:00,
2013-07-24 13:32:00,86.0,71.0,29.89,NE,38,2.0,4.0,61,0.00,,,0.16,Wunderground v.1.15,2013-07-24 18:32:00,
2013-07-24 13:38:00,86.0,71.0,29.89,NNE,15,2.0,6.0,61,0.00,,,0.16,Wunderground v.1.15,2013-07-24 18:38:00,
2013-07-24 13:44:00,85.3,70.8,29.88,North,9,4.0,5.0,62,0.00,,,0.16,Wunderground v.1.15,2013-07-24 18:44:00,
2013-07-24 13:50:00,86.0,71.0,29.88,ENE,76,3.0,3.0,61,0.00,,,0.16,Wunderground v.1.15,2013-07-24 18:50:00,
2013-07-24 13:56:00,86.5,71.5,29.88,NE,44,3.0,4.0,61,0.00,,,0.16,Wunderground v.1.15,2013-07-24 18:56:00,
2013-07-24 14:02:00,86.4,70.9,29.88,NNE,15,3.0,7.0,60,0.00,,,0.16,Wunderground v.1.15,2013-07-24 19:02:00,
2013-07-24 14:08:00,86.2,70.7,29.89,North,349,2.0,7.0,60,0.00,,,0.16,Wunderground v.1.15,2013-07-24 19:08:00,
2013-07-24 14:14:00,86.5,71.0,29.89,NNW,348,2.0,3.0,60,0.00,,,0.16,Wunderground v.1.15,2013-07-24 19:14:00,
2013-07-24 14:20:00,87.2,71.1,29.89,NNE,17,2.0,3.0,59,0.00,,,0.16,Wunderground v.1.15,2013-07-24 19:20:00,
2013-07-24 14:26:00,87.4,71.3,29.89,NNE,26,3.0,3.0,59,0.00,,,0.16,Wunderground v.1.15,2013-07-24 19:26:00,
2013-07-24 14:32:00,86.8,70.2,29.89,North,9,4.0,4.0,58,0.00,,,0.16,Wunderground v.1.15,2013-07-24 19:32:00,
2013-07-24 14:38:00,85.9,70.9,29.89,North,355,4.0,6.0,61,0.00,,,0.16,Wunderground v.1.15,2013-07-24 19:38:00,
2013-07-24 14:44:00,86.1,70.1,29.89,NNE,32,4.0,8.0,59,0.00,,,0.16,Wunderground v.1.15,2013-07-24 19:44:00,
2013-07-24 14:50:00,86.7,71.2,29.89,NNE,29,3.0,3.0,60,0.00,,,0.16,Wunderground v.1.15,2013-07-24 19:50:00,
2013-07-24 14:56:00,87.5,71.4,29.89,NNE,14,2.0,3.0,59,0.00,,,0.16,Wunderground v.1.15,2013-07-24 19:56:00,
2013-07-24 15:02:00,87.7,71.1,29.88,SE,133,2.0,2.0,58,0.00,,,0.16,Wunderground v.1.15,2013-07-24 20:02:00,
2013-07-24 15:08:00,87.9,70.8,29.89,East,88,2.0,2.0,57,0.00,,,0.16,Wunderground v.1.15,2013-07-24 20:08:00,
2013-07-24 15:14:00,88.3,70.6,29.88,SE,134,1.0,2.0,56,0.00,,,0.16,Wunderground v.1.15,2013-07-24 20:14:00,
2013-07-24 15:20:00,88.6,70.9,29.88,North,355,2.0,2.0,56,0.00,,,0.16,Wunderground v.1.15,2013-07-24 20:20:00,
2013-07-24 15:26:00,88.8,70.0,29.89,ENE,60,2.0,3.0,54,0.00,,,0.16,Wunderground v.1.15,2013-07-24 20:26:00,
2013-07-24 15:32:00,89.3,70.5,29.88,ENE,59,2.0,2.0,54,0.00,,,0.16,Wunderground v.1.15,2013-07-24 20:32:00,
2013-07-24 15:38:00,89.8,69.8,29.88,NE,41,1.0,4.0,52,0.00,,,0.16,Wunderground v.1.15,2013-07-24 20:38:00,
2013-07-24 15:44:00,89.5,70.1,29.88,NNE,24,2.0,3.0,53,0.00,,,0.16,Wunderground v.1.15,2013-07-24 20:44:00,
2013-07-24 15:50:00,89.2,70.4,29.88,NNE,22,2.0,3.0,54,0.00,,,0.16,Wunderground v.1.15,2013-07-24 20:50:00,
2013-07-24 15:56:00,88.9,70.1,29.88,NW,323,2.0,8.0,54,0.00,,,0.16,Wunderground v.1.15,2013-07-24 20:56:00,
2013-07-24 16:02:00,88.5,70.3,29.88,NE,40,5.0,5.0,55,0.00,,,0.16,Wunderground v.1.15,2013-07-24 21:02:00,
2013-07-24 16:08:00,88.7,70.5,29.87,North,9,4.0,5.0,55,0.00,,,0.16,Wunderground v.1.15,2013-07-24 21:08:00,
2013-07-24 16:14:00,89.0,70.7,29.87,North,10,3.0,3.0,55,0.00,,,0.16,Wunderground v.1.15,2013-07-24 21:14:00,
2013-07-24 16:20:00,89.7,70.3,29.87,NE,42,2.0,2.0,53,0.00,,,0.16,Wunderground v.1.15,2013-07-24 21:20:00,
2013-07-24 16:26:00,90.8,71.3,29.87,NE,53,2.0,4.0,53,0.00,,,0.16,Wunderground v.1.15,2013-07-24 21:26:00,
2013-07-24 16:32:00,90.6,70.6,29.87,North,9,3.0,9.0,52,0.00,,,0.16,Wunderground v.1.15,2013-07-24 21:32:00,
2013-07-24 16:38:00,90.5,70.5,29.86,North,360,3.0,9.0,52,0.00,,,0.16,Wunderground v.1.15,2013-07-24 21:38:00,
2013-07-24 16:46:00,90.6,70.6,29.86,NNW,340,3.0,4.0,52,0.00,,,0.16,Wunderground v.1.15,2013-07-24 21:46:00,
2013-07-24 16:52:00,90.0,71.1,29.86,North,360,4.0,4.0,54,0.00,,,0.16,Wunderground v.1.15,2013-07-24 21:52:00,
2013-07-24 16:58:00,89.9,71.0,29.86,East,90,2.0,4.0,54,0.00,,,0.16,Wunderground v.1.15,2013-07-24 21:58:00,
2013-07-24 17:04:00,90.2,71.3,29.86,East,91,2.0,3.0,54,0.00,,,0.16,Wunderground v.1.15,2013-07-24 22:04:00,
2013-07-24 17:10:00,90.8,71.3,29.86,NE,41,2.0,3.0,53,0.00,,,0.16,Wunderground v.1.15,2013-07-24 22:10:00,
2013-07-24 17:16:00,91.0,70.9,29.86,NNE,24,3.0,3.0,52,0.00,,,0.16,Wunderground v.1.15,2013-07-24 22:16:00,
2013-07-24 17:22:00,90.2,71.3,29.86,ESE,107,3.0,3.0,54,0.00,,,0.16,Wunderground v.1.15,2013-07-24 22:22:00,
2013-07-24 17:29:00,90.2,71.3,29.86,NE,52,2.0,3.0,54,0.00,,,0.16,Wunderground v.1.15,2013-07-24 22:29:00,
2013-07-24 17:34:00,89.9,71.6,29.86,North,360,2.0,7.0,55,0.00,,,0.16,Wunderground v.1.15,2013-07-24 22:34:00,
2013-07-24 17:40:00,89.4,71.1,29.85,ENE,75,2.0,2.0,55,0.00,,,0.16,Wunderground v.1.15,2013-07-24 22:40:00,
2013-07-24 17:46:00,89.6,70.8,29.85,NE,34,2.0,2.0,54,0.00,,,0.16,Wunderground v.1.15,2013-07-24 22:46:00,
2013-07-24 17:52:00,90.0,70.6,29.85,NNE,32,2.0,4.0,53,0.00,,,0.16,Wunderground v.1.15,2013-07-24 22:52:00,
2013-07-24 17:58:00,90.1,70.7,29.85,NNE,33,3.0,4.0,53,0.00,,,0.16,Wunderground v.1.15,2013-07-24 22:58:00,
2013-07-24 18:04:00,90.1,70.7,29.84,East,80,2.0,3.0,53,0.00,,,0.16,Wunderground v.1.15,2013-07-24 23:04:00,
2013-07-24 18:10:00,90.2,70.2,29.84,East,101,2.0,4.0,52,0.00,,,0.16,Wunderground v.1.15,2013-07-24 23:10:00,
2013-07-24 18:16:00,90.2,69.6,29.84,NE,34,2.0,4.0,51,0.00,,,0.16,Wunderground v.1.15,2013-07-24 23:16:00,
2013-07-24 18:22:00,90.4,69.8,29.84,ENE,62,2.0,3.0,51,0.00,,,0.16,Wunderground v.1.15,2013-07-24 23:22:00,
2013-07-24 18:28:00,90.1,69.5,29.84,East,79,2.0,3.0,51,0.00,,,0.16,Wunderground v.1.15,2013-07-24 23:28:00,
2013-07-24 18:34:00,89.9,69.3,29.84,NNE,31,2.0,3.0,51,0.00,,,0.16,Wunderground v.1.15,2013-07-24 23:34:00,
2013-07-24 18:40:00,89.7,69.2,29.84,NNE,22,3.0,4.0,51,0.00,,,0.16,Wunderground v.1.15,2013-07-24 23:40:00,
2013-07-24 18:46:00,89.6,69.1,29.84,East,82,3.0,4.0,51,0.00,,,0.16,Wunderground v.1.15,2013-07-24 23:46:00,
2013-07-24 18:52:00,89.7,69.2,29.84,NE,42,2.0,2.0,51,0.00,,,0.16,Wunderground v.1.15,2013-07-24 23:52:00,
2013-07-24 18:58:00,90.1,69.5,29.84,ENE,72,1.0,2.0,51,0.00,,,0.16,Wunderground v.1.15,2013-07-24 23:58:00,
2013-07-24 19:04:00,89.9,69.3,29.84,NE,36,2.0,2.0,51,0.00,,,0.16,Wunderground v.1.15,2013-07-25 00:04:00,
2013-07-24 19:10:00,90.0,69.4,29.84,NE,38,2.0,2.0,51,0.00,,,0.16,Wunderground v.1.15,2013-07-25 00:10:00,
2013-07-24 19:16:00,89.8,69.8,29.84,NNE,13,2.0,5.0,52,0.00,,,0.16,Wunderground v.1.15,2013-07-25 00:16:00,
2013-07-24 19:22:00,89.5,69.5,29.84,NNE,15,2.0,5.0,52,0.00,,,0.16,Wunderground v.1.15,2013-07-25 00:22:00,
2013-07-24 19:28:00,89.4,70.0,29.85,ENE,69,2.0,5.0,53,0.00,,,0.16,Wunderground v.1.15,2013-07-25 00:28:00,
2013-07-24 19:34:00,89.4,70.0,29.85,ENE,71,1.0,2.0,53,0.00,,,0.16,Wunderground v.1.15,2013-07-25 00:34:00,
2013-07-24 19:40:00,89.4,70.6,29.85,ENE,75,1.0,1.0,54,0.00,,,0.16,Wunderground v.1.15,2013-07-25 00:40:00,
2013-07-24 19:46:00,89.1,70.3,29.85,East,87,1.0,3.0,54,0.00,,,0.16,Wunderground v.1.15,2013-07-25 00:46:00,
2013-07-24 19:52:00,89.0,70.7,29.85,ENE,78,1.0,1.0,55,0.00,,,0.16,Wunderground v.1.15,2013-07-25 00:52:00,
2013-07-24 19:58:00,88.7,71.0,29.86,East,80,1.0,2.0,56,0.00,,,0.16,Wunderground v.1.15,2013-07-25 00:58:00,
2013-07-24 20:04:00,88.5,70.8,29.86,East,79,0.0,1.0,56,0.00,,,0.16,Wunderground v.1.15,2013-07-25 01:04:00,
2013-07-24 20:10:00,88.1,70.9,29.86,ENE,78,1.0,1.0,57,0.00,,,0.16,Wunderground v.1.15,2013-07-25 01:10:00,
2013-07-24 20:16:00,87.3,70.7,29.86,ENE,76,2.0,2.0,58,0.00,,,0.16,Wunderground v.1.15,2013-07-25 01:16:00,
2013-07-24 20:22:00,86.9,70.3,29.86,ENE,75,1.0,1.0,58,0.00,,,0.16,Wunderground v.1.15,2013-07-25 01:22:00,
2013-07-24 20:28:00,86.5,70.5,29.86,ENE,76,0.0,1.0,59,0.00,,,0.16,Wunderground v.1.15,2013-07-25 01:28:00,
2013-07-24 20:34:00,86.4,70.9,29.86,ENE,75,0.0,2.0,60,0.00,,,0.16,Wunderground v.1.15,2013-07-25 01:34:00,
2013-07-24 20:40:00,86.3,70.8,29.86,ENE,75,0.0,0.0,60,0.00,,,0.16,Wunderground v.1.15,2013-07-25 01:40:00,
2013-07-24 20:46:00,85.9,70.9,29.87,ENE,75,0.0,0.0,61,0.00,,,0.16,Wunderground v.1.15,2013-07-25 01:46:00,
2013-07-24 20:52:00,85.7,70.7,29.87,ENE,76,0.0,2.0,61,0.00,,,0.16,Wunderground v.1.15,2013-07-25 01:52:00,
2013-07-24 20:58:00,85.6,70.6,29.86,ENE,76,0.0,2.0,61,0.00,,,0.16,Wunderground v.1.15,2013-07-25 01:58:00,
2013-07-24 21:04:00,85.4,70.4,29.87,ENE,76,0.0,0.0,61,0.00,,,0.16,Wunderground v.1.15,2013-07-25 02:04:00,
2013-07-24 21:10:00,85.2,70.7,29.87,ENE,76,0.0,0.0,62,0.00,,,0.16,Wunderground v.1.15,2013-07-25 02:10:00,
2013-07-24 21:16:00,85.0,70.5,29.88,ENE,76,0.0,0.0,62,0.00,,,0.16,Wunderground v.1.15,2013-07-25 02:16:00,
2013-07-24 21:22:00,84.9,70.4,29.88,ENE,76,0.0,0.0,62,0.00,,,0.16,Wunderground v.1.15,2013-07-25 02:22:00,
2013-07-24 21:28:00,84.8,70.8,29.88,ENE,76,0.0,0.0,63,0.00,,,0.16,Wunderground v.1.15,2013-07-25 02:28:00,
2013-07-24 21:34:00,84.7,70.7,29.88,ENE,76,0.0,0.0,63,0.00,,,0.16,Wunderground v.1.15,2013-07-25 02:34:00,
2013-07-24 21:40:00,84.6,70.6,29.88,ENE,76,0.0,0.0,63,0.00,,,0.16,Wunderground v.1.15,2013-07-25 02:40:00,
2013-07-24 21:46:00,84.4,70.9,29.88,ENE,76,0.0,0.0,64,0.00,,,0.16,Wunderground v.1.15,2013-07-25 02:46:00,
2013-07-24 21:52:00,84.2,70.7,29.89,ENE,76,0.0,0.0,64,0.00,,,0.16,Wunderground v.1.15,2013-07-25 02:52:00,
2013-07-24 21:58:00,84.0,70.5,29.89,ENE,76,0.0,0.0,64,0.00,,,0.16,Wunderground v.1.15,2013-07-25 02:58:00,
2013-07-24 22:04:00,83.7,70.7,29.90,ENE,76,0.0,0.0,65,0.00,,,0.16,Wunderground v.1.15,2013-07-25 03:04:00,
2013-07-24 22:10:00,83.3,70.8,29.90,ENE,76,0.0,0.0,66,0.00,,,0.16,Wunderground v.1.15,2013-07-25 03:10:00,
2013-07-24 22:16:00,83.1,71.0,29.90,ENE,76,0.0,0.0,67,0.00,,,0.16,Wunderground v.1.15,2013-07-25 03:16:00,
2013-07-24 22:22:00,82.9,70.8,29.90,ENE,76,0.0,0.0,67,0.00,,,0.16,Wunderground v.1.15,2013-07-25 03:22:00,
2013-07-24 22:28:00,82.7,71.1,29.91,ENE,76,0.0,0.0,68,0.00,,,0.16,Wunderground v.1.15,2013-07-25 03:28:00,
2013-07-24 22:36:00,82.3,71.1,29.90,ENE,76,0.0,0.0,69,0.00,,,0.16,Wunderground v.1.15,2013-07-25 03:36:00,
2013-07-24 22:42:00,81.9,71.2,29.91,ENE,76,0.0,0.0,70,0.00,,,0.16,Wunderground v.1.15,2013-07-25 03:42:00,
2013-07-24 22:50:00,81.7,71.0,29.91,ENE,76,0.0,0.0,70,0.00,,,0.16,Wunderground v.1.15,2013-07-25 03:50:00,
2013-07-24 22:56:00,81.6,70.9,29.91,ENE,76,0.0,0.0,70,0.00,,,0.16,Wunderground v.1.15,2013-07-25 03:56:00,
2013-07-24 23:02:00,81.4,71.1,29.91,ENE,76,0.0,0.0,71,0.00,,,0.16,Wunderground v.1.15,2013-07-25 04:02:00,
2013-07-24 23:06:00,81.1,70.8,29.91,ENE,76,0.0,0.0,71,0.00,,,0.16,Wunderground v.1.15,2013-07-25 04:06:00,
2013-07-24 23:10:00,80.8,70.9,29.92,ENE,76,0.0,0.0,72,0.00,,,0.16,Wunderground v.1.15,2013-07-25 04:10:00,
2013-07-24 23:12:00,80.7,70.8,29.92,ENE,76,0.0,0.0,72,0.00,,,0.16,Wunderground v.1.15,2013-07-25 04:12:00,
2013-07-24 23:16:00,80.6,70.7,29.92,ENE,76,0.0,0.0,72,0.00,,,0.16,Wunderground v.1.15,2013-07-25 04:16:00,
2013-07-24 23:22:00,80.3,70.9,29.92,ENE,76,0.0,0.0,73,0.00,,,0.16,Wunderground v.1.15,2013-07-25 04:22:00,
2013-07-24 23:28:00,80.2,71.2,29.92,ENE,76,0.0,0.0,74,0.00,,,0.16,Wunderground v.1.15,2013-07-25 04:28:00,
2013-07-24 23:34:00,80.1,71.1,29.92,ENE,76,0.0,0.0,74,0.00,,,0.16,Wunderground v.1.15,2013-07-25 04:34:00,
2013-07-24 23:40:00,80.0,71.4,29.92,ENE,76,0.0,0.0,75,0.00,,,0.16,Wunderground v.1.15,2013-07-25 04:40:00,
2013-07-24 23:46:00,79.8,71.2,29.92,ENE,76,0.0,0.0,75,0.00,,,0.16,Wunderground v.1.15,2013-07-25 04:46:00,
2013-07-24 23:52:00,79.7,71.1,29.92,ENE,76,0.0,0.0,75,0.00,,,0.16,Wunderground v.1.15,2013-07-25 04:52:00,
2013-07-24 23:58:00,79.6,71.0,29.92,ENE,76,0.0,0.0,75,0.00,,,0.16,Wunderground v.1.15,2013-07-25 04:58:00,